Time;durP1;ratioP1;P1;durP2;ratioP2;P2;SDS_P1;SDS_P2;PMS_P1;PMS_P2;Temp;Humidity;BMP_temperature;BMP_pressure;BME280_temperature;BME280_humidity;BME280_pressure;Samples;Min_cycle;Max_cycle;Signal;HPM_P1;HPM_P2
2023/08/25 00:02:12;;;;;;;14.20;13.10;;;;;;;26.97;47.44;95137.22;6090736;28;113892;-61
2023/08/25 00:05:15;;;;;;;14.07;12.87;;;;;;;26.98;47.10;95136.09;6090371;28;109764;-61
2023/08/25 00:08:19;;;;;;;14.30;13.10;;;;;;;26.98;46.68;95125.38;6090871;28;109937;-62
2023/08/25 00:11:22;;;;;;;14.30;13.23;;;;;;;26.98;46.88;95125.38;6112998;28;109943;-61
2023/08/25 00:14:26;;;;;;;13.87;12.77;;;;;;;26.98;46.58;95120.78;6102836;28;110037;-61
2023/08/25 00:17:29;;;;;;;13.30;12.30;;;;;;;26.97;46.63;95137.22;6089084;28;109783;-63
2023/08/25 00:20:33;;;;;;;14.80;13.70;;;;;;;26.96;46.47;95136.44;6085086;28;109922;-61
2023/08/25 00:23:36;;;;;;;14.00;12.80;;;;;;;26.95;46.55;95131.41;6084118;28;110896;-62
2023/08/25 00:26:39;;;;;;;14.27;13.27;;;;;;;26.95;47.22;95120.66;6085257;28;110009;-64
2023/08/25 00:29:44;;;;;;;14.07;12.97;;;;;;;26.94;47.13;95121.78;6078057;28;110969;-63
2023/08/25 00:32:47;;;;;;;13.30;12.40;;;;;;;26.97;46.72;95139.91;6089157;28;109548;-62
2023/08/25 00:35:50;;;;;;;13.83;12.83;;;;;;;26.93;46.45;95136.34;6084049;28;110089;-62
2023/08/25 00:38:54;;;;;;;13.43;12.33;;;;;;;26.91;46.65;95135.88;6089148;28;109687;-62
2023/08/25 00:41:57;;;;;;;13.17;12.30;;;;;;;26.90;46.53;95134.31;6059295;28;110341;-61
2023/08/25 00:45:01;;;;;;;14.07;12.97;;;;;;;26.91;47.31;95138.56;6067611;28;109886;-61
2023/08/25 00:48:06;;;;;;;15.00;13.80;;;;;;;26.92;47.24;95142.81;6095707;28;109893;-61
2023/08/25 00:51:10;;;;;;;14.33;13.13;;;;;;;26.92;46.68;95142.81;6105577;28;109950;-65
2023/08/25 00:54:14;;;;;;;13.27;12.37;;;;;;;26.92;46.76;95146.28;6088001;28;110241;-62
2023/08/25 00:57:17;;;;;;;15.73;14.43;;;;;;;26.95;46.44;95142.16;6095535;28;110131;-62
2023/08/25 01:00:23;;;;;;;13.87;12.90;;;;;;;26.97;47.04;95134.53;6100962;28;112471;-63
2023/08/25 01:03:26;;;;;;;14.13;13.13;;;;;;;26.95;46.65;95136.78;6080573;28;111254;-63
2023/08/25 01:06:30;;;;;;;14.20;13.10;;;;;;;26.94;47.22;95135.22;6082565;28;109911;-62
2023/08/25 01:09:34;;;;;;;14.77;13.67;;;;;;;26.93;46.99;95133.66;6078191;28;109857;-61
2023/08/25 01:12:46;;;;;;;13.70;12.70;;;;;;;26.94;46.96;95137.91;6075099;28;110060;-62
2023/08/25 01:15:53;;;;;;;13.63;12.63;;;;;;;26.89;46.86;95130.06;6077824;28;113185;-63
2023/08/25 01:18:57;;;;;;;14.60;13.50;;;;;;;26.83;46.91;95134.84;6085374;28;109825;-61
2023/08/25 01:22:06;;;;;;;14.07;13.07;;;;;;;26.85;46.75;95135.31;6108802;28;110962;-61
2023/08/25 01:25:20;;;;;;;13.70;12.70;;;;;;;26.81;46.83;95134.41;6099336;28;109824;-62
2023/08/25 01:28:26;;;;;;;13.73;12.57;;;;;;;26.78;46.98;95133.19;6094790;28;110019;-62
2023/08/25 01:31:29;;;;;;;14.83;13.80;;;;;;;26.82;47.24;95128.69;6097305;28;109541;-63
2023/08/25 01:34:33;;;;;;;13.80;12.70;;;;;;;26.85;47.00;95132.63;6093100;28;109615;-62
2023/08/25 01:37:43;;;;;;;13.57;12.67;;;;;;;26.84;47.02;95123.00;6085879;28;109782;-60
2023/08/25 01:40:54;;;;;;;14.97;13.77;;;;;;;26.84;47.20;95134.53;6088863;28;109954;-62
2023/08/25 01:43:59;;;;;;;13.50;12.50;;;;;;;26.85;46.59;95133.41;6091854;28;109816;-61
2023/08/25 01:47:07;;;;;;;13.00;12.10;;;;;;;26.80;46.64;95128.25;6101223;28;110254;-62
2023/08/25 01:50:11;;;;;;;15.00;13.90;;;;;;;26.80;46.71;95130.16;6077643;28;110565;-62
2023/08/25 01:53:15;;;;;;;14.23;13.13;;;;;;;26.81;46.74;95131.72;6088985;28;109777;-62
2023/08/25 01:56:20;;;;;;;13.87;12.87;;;;;;;26.80;46.95;95124.78;6104604;28;110784;-62
2023/08/25 01:59:23;;;;;;;14.80;13.80;;;;;;;26.79;46.63;95126.69;6100770;28;109923;-65
2023/08/25 02:02:26;;;;;;;13.63;12.50;;;;;;;26.83;47.19;95132.94;6085927;28;110983;-62
2023/08/25 02:05:29;;;;;;;13.83;12.63;;;;;;;26.82;47.07;95134.06;6098335;28;110318;-62
2023/08/25 02:08:32;;;;;;;14.40;13.30;;;;;;;26.71;47.58;95127.56;6094652;28;109684;-62
2023/08/25 02:11:38;;;;;;;14.17;13.07;;;;;;;26.67;47.15;95140.09;6088085;28;109931;-65
2023/08/25 02:14:41;;;;;;;14.60;13.40;;;;;;;26.52;47.46;95138.00;6103179;28;109842;-62
2023/08/25 02:17:44;;;;;;;17.17;15.87;;;;;;;26.67;47.52;95133.94;6087553;28;110194;-62
2023/08/25 02:20:47;;;;;;;20.87;19.27;;;;;;;26.68;47.67;95135.50;6085091;28;110886;-61
2023/08/25 02:23:52;;;;;;;19.90;18.40;;;;;;;26.74;47.60;95136.88;6094769;28;130437;-62
2023/08/25 02:26:57;;;;;;;22.83;21.13;;;;;;;26.76;47.66;95145.38;6128420;28;110102;-71
2023/08/25 02:30:00;;;;;;;20.33;18.80;;;;;;;26.64;47.56;95148.03;6119518;28;109883;-71
2023/08/25 02:33:04;;;;;;;20.77;19.07;;;;;;;26.53;48.45;95145.72;6123736;28;110433;-72
2023/08/25 02:36:07;;;;;;;19.40;17.80;;;;;;;26.35;49.35;95156.97;6103615;28;110057;-72
2023/08/25 02:39:11;;;;;;;19.40;17.80;;;;;;;26.14;49.54;95143.59;6119293;28;109976;-71
2023/08/25 02:42:15;;;;;;;18.97;17.27;;;;;;;26.07;49.89;95146.03;6128160;28;109899;-72
2023/08/25 02:45:18;;;;;;;18.27;16.77;;;;;;;26.17;49.20;95151.75;6118987;28;109586;-71
2023/08/25 02:48:21;;;;;;;29.20;26.90;;;;;;;26.40;49.20;95154.09;6122263;28;110195;-70
2023/08/25 02:51:24;;;;;;;53.87;49.57;;;;;;;26.51;48.86;95153.31;6136908;28;109517;-70
2023/08/25 02:54:27;;;;;;;42.93;39.53;;;;;;;26.60;48.27;95153.25;6132781;28;109737;-71
2023/08/25 02:57:32;;;;;;;26.97;24.87;;;;;;;26.61;48.61;95152.13;6109062;28;109947;-71
2023/08/25 03:00:35;;;;;;;31.60;29.03;;;;;;;26.64;48.72;95153.41;6115746;28;109828;-71
2023/08/25 03:03:38;;;;;;;31.23;28.67;;;;;;;26.56;48.61;95152.34;6137042;28;109976;-71
2023/08/25 03:06:41;;;;;;;24.80;22.77;;;;;;;26.55;48.48;95153.47;6115738;28;110067;-70
2023/08/25 03:09:45;;;;;;;21.83;20.23;;;;;;;26.60;48.14;95158.63;6115007;28;109988;-71
2023/08/25 03:12:49;;;;;;;20.30;18.80;;;;;;;26.60;48.83;95157.84;6131522;28;110792;-72
2023/08/25 03:15:54;;;;;;;20.60;19.00;;;;;;;26.65;48.20;95161.13;6112710;28;109926;-71
2023/08/25 03:18:57;;;;;;;22.50;20.60;;;;;;;26.69;48.56;95162.00;6111242;28;108776;-67
2023/08/25 03:22:00;;;;;;;20.73;19.13;;;;;;;26.74;48.17;95174.47;6104379;28;110244;-72
2023/08/25 03:25:04;;;;;;;21.50;19.60;;;;;;;26.74;48.22;95169.88;6117447;28;110154;-71
2023/08/25 03:28:08;;;;;;;21.80;20.13;;;;;;;26.64;48.39;95172.19;6119458;28;112735;-72
2023/08/25 03:31:13;;;;;;;21.47;19.30;;;;;;;26.68;48.01;95171.19;6106484;28;109812;-69
2023/08/25 03:34:16;;;;;;;20.77;19.17;;;;;;;26.73;47.89;95171.00;6105260;28;109835;-72
2023/08/25 03:37:19;;;;;;;20.07;18.57;;;;;;;26.71;47.84;95167.03;6108262;28;109780;-65
2023/08/25 03:40:22;;;;;;;19.07;17.30;;;;;;;26.70;48.20;95166.25;6102869;28;108709;-65
2023/08/25 03:43:26;;;;;;;18.47;17.07;;;;;;;26.73;47.53;95162.16;6105639;28;109689;-65
2023/08/25 03:46:31;;;;;;;19.90;18.40;;;;;;;26.70;48.40;95173.53;6115207;28;109785;-66
2023/08/25 03:49:35;;;;;;;17.73;16.33;;;;;;;26.65;47.64;95163.00;6115647;28;109728;-65
2023/08/25 03:52:38;;;;;;;18.10;16.57;;;;;;;26.62;47.67;95172.50;6114831;28;109939;-65
2023/08/25 03:55:41;;;;;;;18.80;17.07;;;;;;;26.70;47.97;95168.16;6103306;28;109941;-65
2023/08/25 03:58:46;;;;;;;17.93;16.33;;;;;;;26.66;48.23;95172.63;6098765;28;109965;-67
2023/08/25 04:01:49;;;;;;;18.50;17.00;;;;;;;26.69;48.60;95177.34;6102284;28;112998;-65
2023/08/25 04:04:52;;;;;;;18.63;16.90;;;;;;;26.66;48.90;95178.00;6109136;28;109915;-63
2023/08/25 04:07:56;;;;;;;17.60;15.90;;;;;;;26.63;48.71;95184.81;6108944;28;109311;-64
2023/08/25 04:10:59;;;;;;;16.77;15.10;;;;;;;26.57;48.34;95180.75;6114629;28;110295;-64
2023/08/25 04:14:03;;;;;;;16.80;15.40;;;;;;;26.58;48.10;95196.53;6113211;28;109946;-63
2023/08/25 04:17:06;;;;;;;17.93;16.40;;;;;;;26.64;47.79;95186.41;6103441;28;109866;-63
2023/08/25 04:20:11;;;;;;;16.27;14.97;;;;;;;26.67;48.44;95184.94;6113884;28;109668;-64
2023/08/25 04:23:14;;;;;;;16.90;15.60;;;;;;;26.72;48.15;95192.81;6114449;28;109805;-64
2023/08/25 04:26:17;;;;;;;20.83;19.23;;;;;;;26.69;47.98;95193.44;6113971;28;109961;-63
2023/08/25 04:29:22;;;;;;;42.93;39.67;;;;;;;26.70;47.98;95186.97;6103567;28;111093;-63
2023/08/25 04:32:26;;;;;;;27.10;24.80;;;;;;;26.68;48.47;95181.13;6112545;28;109815;-64
2023/08/25 04:35:29;;;;;;;20.00;18.50;;;;;;;26.69;48.16;95183.50;6113913;28;109791;-63
2023/08/25 04:38:32;;;;;;;19.17;17.77;;;;;;;26.67;48.44;95201.84;6111981;28;109981;-65
2023/08/25 04:41:36;;;;;;;21.47;19.80;;;;;;;26.66;48.65;95199.47;6106203;28;109565;-64
2023/08/25 04:44:41;;;;;;;21.13;19.20;;;;;;;26.66;48.21;95204.84;6113930;28;109918;-63
2023/08/25 04:47:44;;;;;;;19.77;18.07;;;;;;;26.68;48.46;95211.47;6114920;28;109829;-72
2023/08/25 04:50:47;;;;;;;20.00;18.00;;;;;;;26.69;48.34;95213.03;6104394;28;109817;-71
2023/08/25 04:53:50;;;;;;;20.13;18.20;;;;;;;26.70;48.46;95211.91;6115092;28;111117;-72
2023/08/25 04:56:53;;;;;;;17.87;16.47;;;;;;;26.67;48.44;95217.94;6115112;28;110054;-70
2023/08/25 04:59:58;;;;;;;16.93;15.60;;;;;;;26.62;48.29;95220.03;6115416;28;110060;-71
2023/08/25 05:03:01;;;;;;;18.00;16.57;;;;;;;26.69;47.93;95226.44;6102454;28;109904;-71
2023/08/25 05:06:04;;;;;;;16.97;15.70;;;;;;;26.72;48.04;95227.72;6114733;28;110077;-72
2023/08/25 05:09:07;;;;;;;18.20;16.90;;;;;;;26.72;48.08;95236.56;6114148;28;109995;-71
2023/08/25 05:12:11;;;;;;;18.17;16.80;;;;;;;26.73;48.11;95235.44;6114422;28;109816;-71
2023/08/25 05:15:16;;;;;;;18.37;16.93;;;;;;;26.74;48.47;95237.00;6087923;28;110493;-72
2023/08/25 05:18:19;;;;;;;17.93;16.40;;;;;;;26.74;48.29;95238.91;6114293;28;109791;-72
2023/08/25 05:21:22;;;;;;;18.07;16.73;;;;;;;26.75;48.42;95238.56;6113691;28;109840;-70
2023/08/25 05:24:26;;;;;;;23.43;21.17;;;;;;;26.76;48.27;95242.81;6109670;28;109964;-69
2023/08/25 05:27:29;;;;;;;22.90;20.73;;;;;;;26.76;48.79;95248.19;6108465;28;109853;-71
2023/08/25 05:30:34;;;;;;;26.90;24.60;;;;;;;26.77;48.57;95247.06;6113573;28;109942;-71
2023/08/25 05:33:38;;;;;;;22.87;21.10;;;;;;;26.77;48.88;95252.44;6113435;28;109860;-72
2023/08/25 05:36:41;;;;;;;21.53;19.50;;;;;;;26.75;49.03;95257.38;6103406;28;110287;-73
2023/08/25 05:39:44;;;;;;;20.30;18.70;;;;;;;26.47;49.63;95245.56;6114391;28;109799;-72
2023/08/25 05:42:47;;;;;;;19.67;17.77;;;;;;;26.49;49.81;95240.66;6113505;28;110055;-72
2023/08/25 05:45:52;;;;;;;19.83;17.83;;;;;;;26.40;50.47;95230.00;6113852;28;109827;-73
2023/08/25 05:48:55;;;;;;;19.10;17.40;;;;;;;26.44;50.52;95230.91;6103628;28;109934;-69
2023/08/25 05:51:58;;;;;;;19.60;17.70;;;;;;;26.70;48.96;95232.59;6114098;28;108648;-71
2023/08/25 05:55:01;;;;;;;18.03;16.60;;;;;;;26.84;49.08;95225.81;6114091;28;109600;-69
2023/08/25 05:58:05;;;;;;;18.00;16.50;;;;;;;26.96;48.38;95225.06;6112507;28;111070;-69
2023/08/25 06:01:09;;;;;;;18.30;17.00;;;;;;;27.07;48.27;95223.53;6106724;28;111110;-68
2023/08/25 06:04:12;;;;;;;18.20;16.83;;;;;;;27.16;48.37;95237.66;6113343;28;109781;-68
2023/08/25 06:07:15;;;;;;;16.57;15.37;;;;;;;27.25;48.15;95228.72;6113348;28;109981;-69
2023/08/25 06:10:19;;;;;;;17.17;15.87;;;;;;;27.31;47.91;95222.81;6103640;28;109931;-69
2023/08/25 06:13:22;;;;;;;16.53;15.27;;;;;;;27.37;47.88;95218.00;6113570;28;110101;-69
2023/08/25 06:16:27;;;;;;;17.67;16.37;;;;;;;27.41;48.38;95214.31;6113611;28;109971;-68
2023/08/25 06:19:30;;;;;;;17.23;15.93;;;;;;;27.49;48.21;95225.28;6113671;28;109769;-69
2023/08/25 06:22:34;;;;;;;17.47;16.10;;;;;;;27.53;48.42;95223.47;6102340;28;110075;-69
2023/08/25 06:25:37;;;;;;;16.93;15.67;;;;;;;27.57;47.62;95210.97;6113624;28;109801;-69
2023/08/25 06:28:40;;;;;;;16.93;15.53;;;;;;;27.65;47.54;95210.03;6113494;28;109941;-68
2023/08/25 06:31:45;;;;;;;17.00;15.70;;;;;;;27.70;47.92;95205.22;6101215;28;110693;-68
2023/08/25 06:34:51;;;;;;;16.90;15.50;;;;;;;27.77;47.96;95215.41;6101990;28;109921;-68
2023/08/25 06:37:54;;;;;;;17.53;16.23;;;;;;;27.79;48.22;95215.84;6113515;28;112063;-68
2023/08/25 06:40:58;;;;;;;17.60;16.20;;;;;;;27.83;48.17;95211.38;6112821;28;111433;-68
2023/08/25 06:44:01;;;;;;;16.60;15.40;;;;;;;27.91;47.67;95204.34;6107568;28;110138;-69
2023/08/25 06:47:06;;;;;;;16.33;15.03;;;;;;;27.99;47.83;95209.56;6107342;28;109780;-68
2023/08/25 06:50:09;;;;;;;17.07;15.73;;;;;;;28.03;47.39;95215.84;6113625;28;113277;-66
2023/08/25 06:53:12;;;;;;;16.47;15.23;;;;;;;28.09;47.53;95221.00;6112708;28;109979;-67
2023/08/25 06:56:15;;;;;;;17.53;16.13;;;;;;;28.14;47.20;95213.47;6102317;28;109932;-67
2023/08/25 06:59:18;;;;;;;15.90;14.80;;;;;;;28.21;47.17;95215.56;6115327;28;109791;-68
2023/08/25 07:02:23;;;;;;;16.97;15.50;;;;;;;28.29;47.11;95209.28;6116363;28;109987;-68
2023/08/25 07:05:26;;;;;;;16.00;14.80;;;;;;;28.35;46.43;95218.66;6116240;28;109372;-68
2023/08/25 07:08:30;;;;;;;16.13;14.87;;;;;;;28.39;46.67;95214.16;6105406;28;109396;-68
2023/08/25 07:11:33;;;;;;;16.53;15.13;;;;;;;28.41;46.76;95217.31;6100880;28;110254;-68
2023/08/25 07:14:37;;;;;;;16.10;14.83;;;;;;;28.52;46.60;95214.94;6115967;28;109673;-68
2023/08/25 07:17:41;;;;;;;16.03;14.73;;;;;;;28.54;46.47;95216.16;6113313;28;110091;-68
2023/08/25 07:20:44;;;;;;;15.60;13.90;;;;;;;28.48;46.39;95204.06;6109511;28;109861;-68
2023/08/25 07:23:47;;;;;;;15.40;14.20;;;;;;;28.55;46.30;95212.34;6116178;28;109804;-68
2023/08/25 07:26:51;;;;;;;17.30;15.67;;;;;;;28.41;46.94;95211.94;6115794;28;110282;-62
2023/08/25 07:29:54;;;;;;;16.40;15.00;;;;;;;28.39;46.63;95214.16;6106525;28;109867;-68
2023/08/25 07:32:58;;;;;;;17.03;15.73;;;;;;;28.53;46.85;95219.97;6115730;28;109812;-69
2023/08/25 07:36:04;;;;;;;15.73;14.37;;;;;;;28.62;46.31;95217.94;6116184;28;109692;-68
2023/08/25 07:39:07;;;;;;;16.23;14.77;;;;;;;28.70;46.25;95215.41;6116045;28;109788;-68
2023/08/25 07:42:10;;;;;;;16.00;14.60;;;;;;;28.48;46.32;95228.31;6104894;28;109945;-68
2023/08/25 07:45:13;;;;;;;15.63;14.33;;;;;;;28.65;46.30;95222.63;6111920;28;109604;-67
2023/08/25 07:48:18;;;;;;;15.70;14.40;;;;;;;28.71;46.19;95216.97;6115448;28;109961;-67
2023/08/25 07:51:21;;;;;;;15.83;14.60;;;;;;;28.78;46.12;95225.28;6115683;28;109850;-68
2023/08/25 07:54:42;;;;;;;16.70;15.23;;;;;;;28.84;46.35;95227.34;6106170;28;110155;-67
2023/08/25 07:57:46;;;;;;;14.80;13.50;;;;;;;28.87;45.81;95217.78;6115408;28;109928;-69
2023/08/25 08:00:49;;;;;;;14.70;13.53;;;;;;;28.89;45.99;95215.53;6115173;28;109849;-69
2023/08/25 08:03:54;;;;;;;14.98;13.88;;;;;;;28.93;46.14;95214.53;6092771;28;109694;-70
2023/08/25 08:07:00;;;;;;;15.10;13.90;;;;;;;28.95;46.13;95214.16;6113041;28;109749;-68
2023/08/25 08:10:04;;;;;;;14.55;13.45;;;;;;;29.01;45.70;95220.88;6112132;28;109759;-68
2023/08/25 08:13:07;;;;;;;15.10;13.90;;;;;;;29.05;45.69;95215.59;6113789;28;109577;-68
2023/08/25 08:16:11;;;;;;;15.90;14.60;;;;;;;29.11;45.39;95216.91;6103748;28;110625;-69
2023/08/25 08:19:16;;;;;;;15.50;14.10;;;;;;;29.16;45.42;95208.56;6114478;28;110427;-69
2023/08/25 08:22:19;;;;;;;13.30;12.10;;;;;;;28.57;44.91;95203.94;6113829;28;109864;-69
2023/08/25 08:25:24;;;;;;;13.87;12.77;;;;;;;28.19;46.75;95201.66;6113849;28;109979;-69
2023/08/25 08:28:27;;;;;;;12.67;11.57;;;;;;;28.40;45.44;95201.50;6104119;28;109624;-69
2023/08/25 08:31:30;;;;;;;11.85;10.85;;;;;;;28.92;43.95;95194.09;6113778;28;110699;-70
2023/08/25 08:34:35;;;;;;;11.70;10.77;;;;;;;28.83;44.12;95188.06;6113928;28;109852;-70
2023/08/25 08:37:39;;;;;;;10.47;9.57;;;;;;;28.18;43.96;95183.97;6108398;28;111017;-68
2023/08/25 08:40:42;;;;;;;10.20;9.30;;;;;;;27.87;43.91;95193.44;6108528;28;109929;-69
2023/08/25 08:43:47;;;;;;;10.70;9.80;;;;;;;27.78;44.37;95184.72;6113059;28;109934;-69
2023/08/25 08:46:50;;;;;;;14.00;12.82;;;;;;;28.34;43.81;95182.88;6113578;28;109803;-69
2023/08/25 08:49:58;;;;;;;10.40;9.50;;;;;;;28.56;42.21;95181.63;6103573;28;111824;-69
2023/08/25 08:53:04;;;;;;;10.07;9.18;;;;;;;28.65;42.60;95184.13;6113457;28;110289;-69
2023/08/25 08:56:08;;;;;;;11.27;10.18;;;;;;;28.12;43.45;95177.25;6113224;28;109892;-69
2023/08/25 08:59:11;;;;;;;9.50;8.70;;;;;;;28.41;43.14;95174.25;6113432;28;110264;-68
2023/08/25 09:02:15;;;;;;;10.00;8.98;;;;;;;28.78;42.27;95163.31;6103755;28;110245;-69
2023/08/25 09:05:22;;;;;;;9.50;8.73;;;;;;;29.02;42.45;95165.06;6112370;28;109618;-68
2023/08/25 09:08:25;;;;;;;9.35;8.65;;;;;;;29.20;41.69;95167.06;6112663;28;109654;-69
2023/08/25 09:11:28;;;;;;;9.75;8.95;;;;;;;29.38;41.37;95177.50;6107630;28;109817;-69
2023/08/25 09:14:31;;;;;;;10.02;9.13;;;;;;;29.41;41.48;95161.44;6106886;28;109955;-68
2023/08/25 09:17:37;;;;;;;9.50;8.70;;;;;;;29.45;41.71;95158.81;6112265;28;109990;-70
2023/08/25 09:20:41;;;;;;;9.40;8.60;;;;;;;29.47;41.22;95151.16;6111118;28;109662;-69
2023/08/25 09:23:55;;;;;;;8.90;8.20;;;;;;;29.49;41.44;95157.75;6101857;28;110090;-72
2023/08/25 09:26:59;;;;;;;9.18;8.45;;;;;;;29.51;41.72;95152.78;6112285;28;109764;-69
2023/08/25 09:30:05;;;;;;;9.45;8.65;;;;;;;29.49;41.64;95144.25;6112453;28;110078;-68
2023/08/25 09:33:09;;;;;;;9.30;8.40;;;;;;;29.49;41.61;95141.56;6112441;28;110036;-68
2023/08/25 09:36:14;;;;;;;9.90;9.00;;;;;;;29.43;41.65;95136.81;6102225;28;109924;-64
2023/08/25 09:39:17;;;;;;;11.10;10.27;;;;;;;29.01;42.81;95131.16;6111467;28;109842;-62
2023/08/25 09:42:23;;;;;;;11.80;10.90;;;;;;;28.65;43.64;95125.66;6111730;28;109815;-65
2023/08/25 09:45:31;;;;;;;11.40;10.40;;;;;;;28.85;42.84;95128.47;6107785;28;112731;-68
2023/08/25 09:48:34;;;;;;;10.93;10.02;;;;;;;29.09;42.62;95128.31;6105857;28;110066;-66
2023/08/25 09:51:41;;;;;;;11.23;10.27;;;;;;;29.20;42.10;95121.25;6111715;28;109812;-68
2023/08/25 09:54:44;;;;;;;10.38;9.57;;;;;;;29.26;42.43;95112.91;6111617;28;110301;-68
2023/08/25 09:57:48;;;;;;;10.23;9.43;;;;;;;29.24;42.06;95108.66;6101429;28;110131;-68
2023/08/25 10:00:52;;;;;;;10.25;9.35;;;;;;;29.24;41.79;95107.88;6111878;28;113063;-67
2023/08/25 10:03:56;;;;;;;10.00;9.10;;;;;;;29.27;42.36;95098.31;6111628;28;110971;-69
2023/08/25 10:07:05;;;;;;;10.07;9.17;;;;;;;29.30;41.89;95094.91;6112080;28;109787;-66
2023/08/25 10:10:09;;;;;;;9.80;9.00;;;;;;;29.35;41.74;95094.63;6102136;28;110973;-67
2023/08/25 10:13:15;;;;;;;9.93;9.13;;;;;;;29.35;42.14;95100.03;6112425;28;112161;-67
2023/08/25 10:16:20;;;;;;;9.68;8.90;;;;;;;29.36;41.71;95094.28;6112121;28;109944;-67
2023/08/25 10:19:24;;;;;;;9.73;8.82;;;;;;;29.39;41.98;95088.16;6110610;28;109743;-67
2023/08/25 10:22:30;;;;;;;9.57;8.77;;;;;;;29.35;41.78;95086.53;6103849;28;112740;-67
2023/08/25 10:25:33;;;;;;;9.70;8.90;;;;;;;29.35;41.71;95081.16;6112685;28;110239;-68
2023/08/25 10:28:38;;;;;;;8.98;8.18;;;;;;;29.33;41.58;95078.81;6111461;28;109756;-68
2023/08/25 10:31:46;;;;;;;9.38;8.57;;;;;;;29.30;41.57;95076.03;6112882;28;109787;-68
2023/08/25 10:34:53;;;;;;;9.52;8.73;;;;;;;29.24;41.93;95080.94;6111645;28;109763;-68
2023/08/25 10:37:57;;;;;;;9.30;8.60;;;;;;;29.18;41.60;95069.63;6110532;28;110354;-68
2023/08/25 10:41:13;;;;;;;10.20;9.30;;;;;;;29.20;42.18;95070.03;6115351;28;110788;-69
2023/08/25 10:44:22;;;;;;;9.23;8.50;;;;;;;29.18;41.94;95068.84;6115296;28;109895;-69
2023/08/25 10:47:28;;;;;;;9.27;8.48;;;;;;;29.14;41.96;95067.97;6104902;28;109671;-69
2023/08/25 10:50:31;;;;;;;9.33;8.63;;;;;;;29.08;42.06;95072.88;6115462;28;109727;-70
2023/08/25 10:53:44;;;;;;;9.70;8.80;;;;;;;29.11;42.41;95076.78;6115554;28;110053;-69
2023/08/25 10:56:47;;;;;;;9.40;8.70;;;;;;;29.10;42.01;95067.91;6115643;28;110082;-69
2023/08/25 10:59:51;;;;;;;9.10;8.40;;;;;;;29.07;42.04;95065.13;6106593;28;109441;-67
2023/08/25 11:02:55;;;;;;;9.47;8.67;;;;;;;29.01;42.03;95061.09;6115196;28;109600;-68
2023/08/25 11:05:58;;;;;;;9.43;8.63;;;;;;;29.00;42.45;95060.31;6115391;28;109879;-69
2023/08/25 11:09:03;;;;;;;8.90;8.20;;;;;;;29.00;41.93;95059.53;6111167;28;111837;-68
2023/08/25 11:12:08;;;;;;;9.80;9.00;;;;;;;29.00;41.97;95052.22;6109379;28;110274;-68
2023/08/25 11:15:14;;;;;;;9.32;8.63;;;;;;;29.02;41.58;95052.66;6104194;28;109315;-68
2023/08/25 11:18:17;;;;;;;9.48;8.68;;;;;;;29.03;42.14;95051.53;6114965;28;109773;-69
2023/08/25 11:21:24;;;;;;;9.32;8.55;;;;;;;29.00;42.27;95051.44;6104303;28;110307;-70
2023/08/25 11:24:29;;;;;;;9.10;8.40;;;;;;;29.01;41.80;95055.72;6115206;28;109802;-68
2023/08/25 11:27:33;;;;;;;9.30;8.50;;;;;;;29.00;41.99;95046.84;6115075;28;110204;-69
2023/08/25 11:30:39;;;;;;;9.43;8.43;;;;;;;29.01;41.54;95043.00;6115156;28;111116;-69
2023/08/25 11:33:42;;;;;;;9.15;8.35;;;;;;;29.01;41.19;95040.31;6104107;28;109837;-69
2023/08/25 11:36:46;;;;;;;9.68;8.85;;;;;;;28.80;41.45;95042.53;6114727;28;109989;-71
2023/08/25 11:39:50;;;;;;;9.13;8.43;;;;;;;28.51;40.42;95039.13;6114975;28;110806;-71
2023/08/25 11:42:54;;;;;;;8.48;7.60;;;;;;;28.47;39.51;95032.09;6109025;28;109932;-71
2023/08/25 11:45:58;;;;;;;8.10;7.30;;;;;;;28.39;39.48;95024.94;6109094;28;110873;-71
2023/08/25 11:49:01;;;;;;;8.40;7.60;;;;;;;28.36;38.97;95026.41;6114382;28;110669;-65
2023/08/25 11:52:06;;;;;;;7.70;7.10;;;;;;;28.37;39.24;95025.28;6113655;28;110273;-64
2023/08/25 11:55:15;;;;;;;8.00;7.30;;;;;;;28.56;38.38;95017.34;6102887;28;109987;-64
2023/08/25 11:58:18;;;;;;;7.90;7.10;;;;;;;28.70;38.30;95005.34;6113610;28;109855;-64
2023/08/25 12:01:21;;;;;;;12.43;11.13;;;;;;;28.82;37.87;95000.63;6113346;28;109953;-63
2023/08/25 12:04:25;;;;;;;9.25;8.52;;;;;;;28.90;36.84;95010.44;6113374;28;109853;-64
2023/08/25 12:07:30;;;;;;;8.40;7.10;;;;;;;28.93;36.96;95001.66;6087535;28;110191;-64
2023/08/25 12:10:36;;;;;;;9.63;8.73;;;;;;;28.67;38.37;94992.56;6113349;28;110739;-64
2023/08/25 12:13:43;;;;;;;9.20;8.30;;;;;;;28.53;38.60;94993.00;6112332;28;109702;-63
2023/08/25 12:16:47;;;;;;;8.30;7.50;;;;;;;28.45;38.19;94989.34;6112526;28;110027;-65
2023/08/25 12:19:51;;;;;;;9.02;7.38;;;;;;;28.45;38.26;94992.03;6104763;28;113980;-63
2023/08/25 12:22:57;;;;;;;8.48;7.55;;;;;;;28.48;38.26;94988.69;6112860;28;109919;-65
2023/08/25 12:26:03;;;;;;;8.30;7.55;;;;;;;28.46;38.44;94993.63;6112922;28;109786;-63
2023/08/25 12:29:07;;;;;;;8.40;7.60;;;;;;;28.49;37.61;94992.94;6103570;28;109992;-65
2023/08/25 12:32:10;;;;;;;9.57;8.60;;;;;;;28.55;37.25;94977.28;6112634;28;109789;-65
2023/08/25 12:35:14;;;;;;;10.90;8.85;;;;;;;28.51;37.98;94979.91;6113402;28;113128;-65
2023/08/25 12:38:17;;;;;;;10.80;8.73;;;;;;;28.50;37.68;94981.03;6113115;28;109777;-65
2023/08/25 12:41:22;;;;;;;9.30;7.80;;;;;;;28.53;36.49;94982.25;6102470;28;110012;-64
2023/08/25 12:44:25;;;;;;;7.10;6.40;;;;;;;28.56;36.65;94971.56;6111822;28;110024;-63
2023/08/25 12:47:28;;;;;;;7.50;6.80;;;;;;;28.55;36.80;94967.28;6112505;28;109804;-64
2023/08/25 12:50:31;;;;;;;8.30;5.97;;;;;;;28.55;36.12;94966.50;6112643;28;109877;-63
2023/08/25 12:53:35;;;;;;;8.30;6.28;;;;;;;28.66;35.88;94975.63;6101584;28;109921;-63
2023/08/25 12:56:39;;;;;;;8.02;6.20;;;;;;;28.62;36.20;94975.56;6111119;28;109988;-65
2023/08/25 12:59:42;;;;;;;7.35;6.22;;;;;;;28.59;36.34;94973.56;6112978;28;109875;-75
2023/08/25 13:02:45;;;;;;;8.17;6.20;;;;;;;28.61;35.74;94975.91;6107968;28;109640;-75
2023/08/25 13:05:51;;;;;;;8.70;5.90;;;;;;;28.65;34.34;94963.31;6107957;28;110753;-74
2023/08/25 13:08:54;;;;;;;13.93;7.00;;;;;;;28.76;34.31;94958.16;6115641;28;110258;-74
2023/08/25 13:11:59;;;;;;;7.00;5.50;;;;;;;28.85;33.11;94962.22;6114196;28;109804;-74
2023/08/25 13:15:03;;;;;;;6.95;5.00;;;;;;;28.93;33.57;94957.78;6101655;28;109878;-74
2023/08/25 13:18:07;;;;;;;7.47;5.10;;;;;;;28.90;33.10;94953.09;6113653;28;110040;-75
2023/08/25 13:21:11;;;;;;;7.20;5.07;;;;;;;28.97;33.42;94949.75;6112348;28;109594;-75
2023/08/25 13:24:14;;;;;;;7.97;5.40;;;;;;;28.90;33.94;94950.41;6112971;28;111156;-75
2023/08/25 13:27:18;;;;;;;6.13;5.23;;;;;;;28.77;34.53;94954.34;6101919;28;110100;-74
2023/08/25 13:30:21;;;;;;;7.22;5.60;;;;;;;28.75;34.55;94953.91;6113429;28;109953;-75
2023/08/25 13:33:25;;;;;;;7.78;5.80;;;;;;;28.73;35.17;94943.50;6112603;28;111073;-74
2023/08/25 13:36:28;;;;;;;6.50;5.20;;;;;;;28.71;35.28;94947.66;6109062;28;112789;-73
2023/08/25 13:39:33;;;;;;;6.55;5.85;;;;;;;28.71;35.20;94947.66;6106501;28;109976;-74
2023/08/25 13:42:37;;;;;;;9.52;6.20;;;;;;;28.73;34.73;94940.81;6100621;28;109755;-76
2023/08/25 13:45:41;;;;;;;6.03;5.43;;;;;;;28.76;34.41;94932.00;6111477;28;109791;-73
2023/08/25 13:48:44;;;;;;;9.45;5.60;;;;;;;28.78;34.16;94931.66;6102401;28;109626;-76
2023/08/25 13:51:47;;;;;;;8.27;5.43;;;;;;;28.79;34.09;94930.53;6111830;28;109966;-75
2023/08/25 13:54:51;;;;;;;8.27;5.40;;;;;;;28.78;33.67;94935.13;6112327;28;109786;-75
2023/08/25 13:57:56;;;;;;;7.28;5.13;;;;;;;28.79;33.50;94925.91;6112219;28;109814;-74
2023/08/25 14:00:59;;;;;;;6.40;5.30;;;;;;;28.76;33.52;94928.53;6101830;28;109512;-73
2023/08/25 14:04:03;;;;;;;5.70;5.10;;;;;;;28.76;33.86;94936.63;6111766;28;110372;-76